createdAt,value
2018-12-17T00:00:43.425Z,1.40
2018-12-17T00:03:10.884Z,1.40
2018-12-17T00:05:41.739Z,1.10
2018-12-17T00:08:07.809Z,1.00
2018-12-17T00:10:35.277Z,1.30
2018-12-17T00:13:02.826Z,1.40
2018-12-17T00:15:30.310Z,1.50
2018-12-17T00:17:57.769Z,1.30
2018-12-17T00:20:25.237Z,1.30
2018-12-17T00:22:52.699Z,1.30
2018-12-17T00:25:20.160Z,1.40
2018-12-17T00:27:47.614Z,1.60
2018-12-17T00:30:15.105Z,1.50
2018-12-17T00:32:42.575Z,1.60
2018-12-17T00:35:10.029Z,1.60
2018-12-17T00:37:37.517Z,1.40
2018-12-17T00:40:06.618Z,1.50
2018-12-17T00:42:34.137Z,1.10
2018-12-17T00:45:01.601Z,1.00
2018-12-17T00:47:29.062Z,0.90
2018-12-17T00:49:56.527Z,1.10
2018-12-17T00:52:23.988Z,1.20
2018-12-17T00:54:51.444Z,1.10
2018-12-17T00:57:18.908Z,1.40
2018-12-17T00:59:46.372Z,1.40
2018-12-17T01:02:13.841Z,1.50
2018-12-17T01:04:41.304Z,1.30
2018-12-17T01:07:08.764Z,1.30
2018-12-17T01:09:36.220Z,1.40
2018-12-17T01:12:03.798Z,1.50
2018-12-17T01:14:31.240Z,1.50
2018-12-17T01:16:58.737Z,1.50
2018-12-17T01:19:26.247Z,1.70
2018-12-17T01:21:53.973Z,1.50
2018-12-17T01:24:21.432Z,1.10
2018-12-17T01:26:48.892Z,1.10
2018-12-17T01:29:16.368Z,1.40
2018-12-17T01:31:43.828Z,1.50
2018-12-17T01:34:11.292Z,1.40
2018-12-17T01:36:38.825Z,1.50
2018-12-17T01:39:06.572Z,1.60
2018-12-17T01:41:34.140Z,1.60
2018-12-17T01:44:01.714Z,1.70
2018-12-17T01:46:29.197Z,1.70
2018-12-17T01:48:56.672Z,1.70
2018-12-17T01:51:24.217Z,1.60
2018-12-17T01:53:51.680Z,1.60
2018-12-17T01:56:19.136Z,1.70
2018-12-17T01:58:46.600Z,1.70
2018-12-17T02:01:14.053Z,1.70
2018-12-17T02:03:41.533Z,1.40
2018-12-17T02:06:09.039Z,1.40
2018-12-17T02:08:36.537Z,1.10
2018-12-17T02:11:04.165Z,1.20
2018-12-17T02:13:31.640Z,1.30
2018-12-17T02:15:59.146Z,1.30
2018-12-17T02:18:26.592Z,1.40
2018-12-17T02:20:54.053Z,1.20
2018-12-17T02:23:21.513Z,1.00
2018-12-17T02:25:48.979Z,1.20
2018-12-17T02:28:16.437Z,1.10
2018-12-17T02:30:43.906Z,1.10
2018-12-17T02:33:11.501Z,1.00
2018-12-17T02:35:38.970Z,0.90
2018-12-17T02:38:06.432Z,1.00
2018-12-17T02:40:34.093Z,1.00
2018-12-17T02:43:01.559Z,1.30
2018-12-17T02:45:29.016Z,1.20
2018-12-17T02:47:56.506Z,0.90
2018-12-17T02:50:24.052Z,0.80
2018-12-17T02:52:51.594Z,0.90
2018-12-17T02:55:19.049Z,1.10
2018-12-17T02:57:46.516Z,1.30
2018-12-17T03:00:14.031Z,1.40
2018-12-17T03:02:41.524Z,1.30
2018-12-17T03:05:09.187Z,1.00
2018-12-17T03:07:36.649Z,1.20
2018-12-17T03:10:05.397Z,1.10
2018-12-17T03:12:32.869Z,1.10
2018-12-17T03:15:00.324Z,1.00
2018-12-17T03:17:27.791Z,1.10
2018-12-17T03:19:55.249Z,1.10
2018-12-17T03:22:22.713Z,1.40
2018-12-17T03:24:50.171Z,1.60
2018-12-17T03:27:17.628Z,1.70
2018-12-17T03:29:45.100Z,1.70
2018-12-17T03:32:12.579Z,1.80
2018-12-17T03:34:40.139Z,1.70
2018-12-17T03:37:07.606Z,1.70
2018-12-17T03:39:35.068Z,1.80
2018-12-17T03:42:02.578Z,1.90
2018-12-17T03:44:30.039Z,1.90
2018-12-17T03:46:57.558Z,1.70
2018-12-17T03:49:25.054Z,1.80
2018-12-17T03:51:52.593Z,1.80
2018-12-17T03:54:20.103Z,1.90
2018-12-17T03:56:47.581Z,1.80
2018-12-17T03:59:15.049Z,1.50
2018-12-17T04:01:42.498Z,1.30
2018-12-17T04:04:10.015Z,1.40
2018-12-17T04:06:37.486Z,1.60
2018-12-17T04:09:06.026Z,1.70
2018-12-17T04:11:33.487Z,1.80
2018-12-17T04:14:02.962Z,1.70
2018-12-17T04:16:30.430Z,1.70
2018-12-17T04:18:57.934Z,1.80
2018-12-17T04:21:25.435Z,1.70
2018-12-17T04:23:52.915Z,1.80
2018-12-17T04:26:20.479Z,1.80
2018-12-17T04:28:47.961Z,1.80
2018-12-17T04:31:15.473Z,1.90
2018-12-17T04:33:42.945Z,1.90
2018-12-17T04:36:10.428Z,1.80
2018-12-17T04:38:37.991Z,1.90
2018-12-17T04:41:05.454Z,1.80
2018-12-17T04:43:32.931Z,1.90
2018-12-17T04:46:00.394Z,1.90
2018-12-17T04:48:27.882Z,1.80
2018-12-17T04:50:55.346Z,1.90
2018-12-17T04:53:22.829Z,1.80
2018-12-17T04:55:50.326Z,1.80
2018-12-17T04:58:17.834Z,1.80
2018-12-17T05:00:45.390Z,1.90
2018-12-17T05:03:12.935Z,1.90
2018-12-17T05:05:40.397Z,1.90
2018-12-17T05:08:07.956Z,1.80
2018-12-17T05:10:35.448Z,1.90
2018-12-17T05:13:02.946Z,1.90
2018-12-17T05:15:30.457Z,1.80
2018-12-17T05:17:57.923Z,1.90
2018-12-17T05:20:25.422Z,1.90
2018-12-17T05:22:52.934Z,2.00
2018-12-17T05:25:20.400Z,1.90
2018-12-17T05:27:47.863Z,1.90
2018-12-17T05:30:15.673Z,1.90
2018-12-17T05:32:43.141Z,1.80
2018-12-17T05:35:10.683Z,2.00
2018-12-17T05:37:38.166Z,2.00
2018-12-17T05:40:06.703Z,1.90
2018-12-17T05:42:34.251Z,2.10
2018-12-17T05:45:01.724Z,2.10
2018-12-17T05:47:29.186Z,2.10
2018-12-17T05:49:56.685Z,2.10
2018-12-17T05:52:24.316Z,2.00
2018-12-17T05:54:51.774Z,2.00
2018-12-17T05:57:19.250Z,2.00
2018-12-17T05:59:46.722Z,2.00
2018-12-17T06:02:14.231Z,2.00
2018-12-17T06:04:41.698Z,1.90
2018-12-17T06:07:09.180Z,2.10
2018-12-17T06:09:36.974Z,2.00
2018-12-17T06:12:04.504Z,1.90
2018-12-17T06:14:31.963Z,1.90
2018-12-17T06:16:59.430Z,2.00
2018-12-17T06:19:26.898Z,2.00
2018-12-17T06:24:28.987Z,2.00
2018-12-17T06:26:56.462Z,2.10
2018-12-17T06:29:23.918Z,2.10
2018-12-17T06:31:51.413Z,2.00
2018-12-17T06:34:18.870Z,2.10
2018-12-17T06:36:46.329Z,2.10
2018-12-17T06:39:14.849Z,2.00
2018-12-17T06:41:42.456Z,1.90
2018-12-17T06:44:09.941Z,1.90
2018-12-17T06:46:37.425Z,1.80
2018-12-17T06:49:04.913Z,1.90
2018-12-17T06:51:32.511Z,2.00
2018-12-17T06:53:59.974Z,1.90
2018-12-17T06:56:27.433Z,1.90
2018-12-17T06:58:54.893Z,1.90
2018-12-17T07:01:22.404Z,1.90
2018-12-17T07:03:49.881Z,2.00
2018-12-17T07:06:17.406Z,2.00
2018-12-17T07:08:44.882Z,2.00
2018-12-17T07:11:12.354Z,2.00
2018-12-17T07:13:39.818Z,2.10
2018-12-17T07:16:07.312Z,2.20
2018-12-17T07:18:34.779Z,2.20
2018-12-17T07:21:02.241Z,2.20
2018-12-17T07:23:29.710Z,2.10
2018-12-17T07:25:57.215Z,2.20
2018-12-17T07:28:24.681Z,2.20
2018-12-17T07:30:52.214Z,2.10
2018-12-17T07:33:19.695Z,1.60
2018-12-17T07:35:47.157Z,1.70
2018-12-17T07:38:14.635Z,1.90
2018-12-17T07:40:42.109Z,2.00
2018-12-17T07:43:09.571Z,2.10
2018-12-17T07:45:37.043Z,1.90
2018-12-17T07:48:04.566Z,1.90
2018-12-17T07:50:32.124Z,1.90
2018-12-17T07:52:59.915Z,2.10
2018-12-17T07:55:27.386Z,2.10
2018-12-17T07:57:54.842Z,1.70
2018-12-17T08:00:22.353Z,1.70
2018-12-17T08:02:49.803Z,1.60
2018-12-17T08:05:17.312Z,1.80
2018-12-17T08:07:44.797Z,2.00
2018-12-17T08:10:12.257Z,2.00
2018-12-17T08:12:39.718Z,2.20
2018-12-17T08:15:07.268Z,2.20
2018-12-17T08:17:34.726Z,2.20
2018-12-17T08:20:02.279Z,2.30
2018-12-17T08:22:29.881Z,2.30
2018-12-17T08:24:57.353Z,2.40
2018-12-17T08:27:24.827Z,2.20
2018-12-17T08:29:52.302Z,2.40
2018-12-17T08:32:19.875Z,2.20
2018-12-17T08:34:47.339Z,2.00
2018-12-17T08:37:14.811Z,1.80
2018-12-17T08:39:42.305Z,1.70
2018-12-17T08:42:09.766Z,1.70
2018-12-17T08:44:37.274Z,1.70
2018-12-17T08:47:04.779Z,1.80
2018-12-17T08:49:32.333Z,2.20
2018-12-17T08:51:59.802Z,2.30
2018-12-17T08:54:27.281Z,2.40
2018-12-17T08:56:54.735Z,2.50
2018-12-17T08:59:22.219Z,2.50
2018-12-17T09:01:49.722Z,2.50
2018-12-17T09:04:17.198Z,2.50
2018-12-17T09:06:44.711Z,2.50
2018-12-17T09:09:12.205Z,2.50
2018-12-17T09:11:39.670Z,2.40
2018-12-17T09:14:07.173Z,2.50
2018-12-17T09:16:34.643Z,2.50
2018-12-17T09:19:02.096Z,2.70
2018-12-17T09:21:29.570Z,2.80
2018-12-17T09:23:57.027Z,3.10
2018-12-17T09:26:24.508Z,3.10
2018-12-17T09:28:51.968Z,3.20
2018-12-17T09:31:19.466Z,3.40
2018-12-17T09:33:46.925Z,3.50
2018-12-17T09:36:14.437Z,3.30
2018-12-17T09:38:41.890Z,3.50
2018-12-17T09:41:09.408Z,3.70
2018-12-17T09:43:36.873Z,3.90
2018-12-17T09:46:04.454Z,3.90
2018-12-17T09:48:31.954Z,4.00
2018-12-17T09:50:59.447Z,4.00
2018-12-17T09:53:26.910Z,4.00
2018-12-17T09:55:54.370Z,3.90
2018-12-17T09:58:21.866Z,3.90
2018-12-17T10:00:49.374Z,3.90
2018-12-17T10:03:16.839Z,4.00
2018-12-17T10:05:44.335Z,3.80
2018-12-17T10:08:11.823Z,3.90
2018-12-17T10:10:39.368Z,4.10
2018-12-17T10:13:06.930Z,4.10
2018-12-17T10:15:34.476Z,4.10
2018-12-17T10:18:01.938Z,4.10
2018-12-17T10:20:29.402Z,4.10
2018-12-17T10:22:56.875Z,4.00
2018-12-17T10:25:24.370Z,4.00
2018-12-17T10:27:51.843Z,4.10
2018-12-17T10:30:19.297Z,3.80
2018-12-17T10:32:46.776Z,4.00
2018-12-17T10:35:14.307Z,4.00
2018-12-17T10:37:41.764Z,4.10
2018-12-17T10:40:09.290Z,4.10
2018-12-17T10:42:36.796Z,4.30
2018-12-17T10:45:05.330Z,4.40
2018-12-17T10:47:32.790Z,4.30
2018-12-17T10:50:00.288Z,4.30
2018-12-17T10:52:27.753Z,4.60
2018-12-17T10:54:55.215Z,4.60
2018-12-17T10:57:22.677Z,4.70
2018-12-17T10:59:50.175Z,4.80
2018-12-17T11:02:19.626Z,4.90
2018-12-17T11:04:49.134Z,4.90
2018-12-17T11:07:16.609Z,5.00
2018-12-17T11:09:44.070Z,5.20
2018-12-17T11:12:11.542Z,5.20
2018-12-17T11:14:39.003Z,5.30
2018-12-17T11:20:19.179Z,5.00
2018-12-17T11:22:46.655Z,5.30
2018-12-17T11:25:14.116Z,5.50
2018-12-17T11:27:41.594Z,5.50
2018-12-17T11:30:09.533Z,5.50
2018-12-17T11:32:38.987Z,5.50
2018-12-17T11:35:06.454Z,5.30
2018-12-17T11:37:42.419Z,5.10
2018-12-17T11:40:10.000Z,5.10
2018-12-17T11:42:37.460Z,5.30
2018-12-17T11:45:05.006Z,5.30
2018-12-17T11:47:32.462Z,5.30
2018-12-17T11:49:59.983Z,5.30
2018-12-17T11:52:27.496Z,5.20
2018-12-17T11:54:55.032Z,5.20
2018-12-17T12:00:32.343Z,5.20
2018-12-17T12:02:59.798Z,5.20
2018-12-17T12:05:27.288Z,5.20
2018-12-17T12:07:54.762Z,5.10
2018-12-17T12:10:22.212Z,5.00
2018-12-17T12:12:49.688Z,5.00
2018-12-17T12:15:17.156Z,4.90
2018-12-17T12:17:44.622Z,5.10
2018-12-17T12:20:12.207Z,5.10
2018-12-17T12:22:39.686Z,5.00
2018-12-17T12:25:07.187Z,5.10
2018-12-17T12:27:34.734Z,5.00
2018-12-17T12:30:03.626Z,4.90
2018-12-17T12:32:31.214Z,5.00
2018-12-17T12:34:58.718Z,5.10
2018-12-17T12:37:26.191Z,5.10
2018-12-17T12:39:53.651Z,5.00
2018-12-17T12:42:21.127Z,5.00
2018-12-17T12:44:48.587Z,4.80
2018-12-17T12:47:16.039Z,4.80
2018-12-17T12:49:43.520Z,4.80
2018-12-17T12:52:10.983Z,4.90
2018-12-17T12:54:38.447Z,4.90
2018-12-17T12:57:05.902Z,4.90
2018-12-17T12:59:33.428Z,4.90
2018-12-17T13:02:00.985Z,5.00
2018-12-17T13:04:28.455Z,5.20
2018-12-17T13:06:55.909Z,5.10
2018-12-17T13:09:23.375Z,5.00
2018-12-17T13:11:50.842Z,5.00
2018-12-17T13:14:18.311Z,5.00
2018-12-17T13:16:45.807Z,5.10
2018-12-17T13:19:13.279Z,5.00
2018-12-17T13:21:40.730Z,5.00
2018-12-17T13:24:08.215Z,5.10
2018-12-17T13:26:35.671Z,5.00
2018-12-17T13:29:03.324Z,4.80
2018-12-17T13:31:30.798Z,4.90
2018-12-17T13:33:58.264Z,5.00
2018-12-17T13:36:25.719Z,5.00
2018-12-17T13:38:53.196Z,4.70
2018-12-17T13:41:20.673Z,4.70
2018-12-17T13:43:48.157Z,4.80
2018-12-17T13:46:15.617Z,4.70
2018-12-17T13:48:43.121Z,4.70
2018-12-17T13:54:22.870Z,4.80
2018-12-17T13:56:50.329Z,4.90
2018-12-17T13:59:17.802Z,4.90
2018-12-17T14:01:51.185Z,4.80
2018-12-17T14:04:14.747Z,4.80
2018-12-17T14:06:42.216Z,4.90
2018-12-17T14:09:09.734Z,4.90
2018-12-17T14:11:37.211Z,4.90
2018-12-17T14:14:04.891Z,4.90
2018-12-17T14:16:38.062Z,5.00
2018-12-17T14:19:11.419Z,5.00
2018-12-17T14:21:59.706Z,5.00
2018-12-17T14:24:27.215Z,5.00
2018-12-17T14:26:54.710Z,4.80
2018-12-17T14:29:22.179Z,5.00
2018-12-17T14:31:49.646Z,5.00
2018-12-17T14:34:17.102Z,5.00
2018-12-17T14:36:44.606Z,5.20
2018-12-17T14:39:12.951Z,5.20
2018-12-17T14:41:40.410Z,5.20
2018-12-17T14:44:13.618Z,5.20
2018-12-17T14:46:46.826Z,5.20
2018-12-17T14:49:14.286Z,5.10
2018-12-17T14:51:41.754Z,5.20
2018-12-17T14:54:09.215Z,5.20
2018-12-17T14:56:36.679Z,5.20
2018-12-17T14:59:04.175Z,5.20
2018-12-17T15:01:35.771Z,5.20
2018-12-17T15:04:01.091Z,5.30
2018-12-17T15:06:28.565Z,5.20
2018-12-17T15:08:56.014Z,5.10
2018-12-17T15:11:23.479Z,5.20
2018-12-17T15:13:50.979Z,5.30
2018-12-17T15:16:18.443Z,5.30
2018-12-17T15:18:45.898Z,5.10
2018-12-17T15:21:13.380Z,5.20
2018-12-17T15:23:40.838Z,5.20
2018-12-17T15:26:08.302Z,5.10
2018-12-17T15:28:35.886Z,5.20
2018-12-17T15:31:03.477Z,5.20
2018-12-17T15:33:31.006Z,5.00
2018-12-17T15:35:58.475Z,4.80
2018-12-17T15:38:25.923Z,4.60
2018-12-17T15:40:53.414Z,4.60
2018-12-17T15:43:20.875Z,4.40
2018-12-17T15:45:48.329Z,4.60
2018-12-17T15:48:15.782Z,4.80
2018-12-17T15:50:43.262Z,4.80
2018-12-17T15:53:10.711Z,4.90
2018-12-17T15:55:38.199Z,4.80
2018-12-17T15:58:05.661Z,4.70
2018-12-17T16:00:33.102Z,4.40
2018-12-17T16:03:00.572Z,4.40
2018-12-17T16:05:28.062Z,4.50
2018-12-17T16:07:55.530Z,4.70
2018-12-17T16:10:23.152Z,4.60
2018-12-17T16:12:50.634Z,4.70
2018-12-17T16:15:18.092Z,4.60
2018-12-17T16:17:45.607Z,4.70
2018-12-17T16:20:13.141Z,4.70
2018-12-17T16:22:40.602Z,4.80
2018-12-17T16:25:08.148Z,4.70
2018-12-17T16:27:35.654Z,4.60
2018-12-17T16:30:04.002Z,4.60
2018-12-17T16:32:31.486Z,4.50
2018-12-17T16:34:58.979Z,4.30
2018-12-17T16:37:26.446Z,4.40
2018-12-17T16:39:53.906Z,4.40
2018-12-17T16:42:21.370Z,4.20
2018-12-17T16:44:48.831Z,4.20
2018-12-17T16:47:16.340Z,4.20
2018-12-17T16:49:43.863Z,4.30
2018-12-17T16:52:11.323Z,4.50
2018-12-17T16:54:40.120Z,4.30
2018-12-17T16:57:07.752Z,4.40
2018-12-17T16:59:35.207Z,4.50
2018-12-17T17:02:04.693Z,4.30
2018-12-17T17:04:32.131Z,4.30
2018-12-17T17:06:59.589Z,4.20
2018-12-17T17:09:27.047Z,4.20
2018-12-17T17:11:54.514Z,4.20
2018-12-17T17:14:21.984Z,4.30
2018-12-17T17:16:49.483Z,4.20
2018-12-17T17:19:16.969Z,4.20
2018-12-17T17:21:44.676Z,4.20
2018-12-17T17:24:12.150Z,4.30
2018-12-17T17:26:39.610Z,4.30
2018-12-17T17:29:08.051Z,4.30
2018-12-17T17:31:35.526Z,4.30
2018-12-17T17:34:02.987Z,4.40
2018-12-17T17:36:30.451Z,4.50
2018-12-17T17:38:58.059Z,4.50
2018-12-17T17:41:25.519Z,4.60
2018-12-17T17:43:53.061Z,4.50
2018-12-17T17:46:20.527Z,4.50
2018-12-17T17:48:48.025Z,4.50
2018-12-17T17:51:15.510Z,4.50
2018-12-17T17:53:42.966Z,4.60
2018-12-17T17:56:10.415Z,4.50
2018-12-17T17:58:37.922Z,4.30
2018-12-17T18:01:05.511Z,4.40
2018-12-17T18:03:33.018Z,4.40
2018-12-17T18:06:00.559Z,4.30
2018-12-17T18:08:28.085Z,4.40
2018-12-17T18:10:55.542Z,4.50
2018-12-17T18:13:23.015Z,4.50
2018-12-17T18:15:50.471Z,4.60
2018-12-17T18:18:17.940Z,4.70
2018-12-17T18:20:45.394Z,4.60
2018-12-17T18:23:12.865Z,4.60
2018-12-17T18:25:40.450Z,4.60
2018-12-17T18:28:08.009Z,4.60
2018-12-17T18:30:35.457Z,4.40
2018-12-17T18:33:02.970Z,4.20
2018-12-17T18:35:30.440Z,4.40
2018-12-17T18:37:57.905Z,4.20
2018-12-17T18:40:25.398Z,3.90
2018-12-17T18:42:52.874Z,3.80
2018-12-17T18:45:20.383Z,3.90
2018-12-17T18:47:47.924Z,4.20
2018-12-17T18:50:15.382Z,4.30
2018-12-17T18:52:42.842Z,4.50
2018-12-17T18:55:10.319Z,4.50
2018-12-17T18:57:37.776Z,4.50
2018-12-17T19:00:08.091Z,4.50
2018-12-17T19:02:35.544Z,4.50
2018-12-17T19:05:03.902Z,4.50
2018-12-17T19:07:31.429Z,4.30
2018-12-17T19:09:58.895Z,4.20
2018-12-17T19:12:26.406Z,4.10
2018-12-17T19:14:53.876Z,4.20
2018-12-17T19:17:21.378Z,4.30
2018-12-17T19:19:48.851Z,4.40
2018-12-17T19:22:16.334Z,4.30
2018-12-17T19:24:43.816Z,4.30
2018-12-17T19:27:11.279Z,4.30
2018-12-17T19:29:38.872Z,4.40
2018-12-17T19:32:06.384Z,4.10
2018-12-17T19:34:33.868Z,4.00
2018-12-17T19:37:01.331Z,4.20
2018-12-17T19:39:28.819Z,4.30
2018-12-17T19:41:56.280Z,4.30
2018-12-17T19:44:23.796Z,4.30
2018-12-17T19:46:51.310Z,4.40
2018-12-17T19:49:18.917Z,4.50
2018-12-17T19:51:46.474Z,4.60
2018-12-17T19:54:13.993Z,4.50
2018-12-17T19:56:41.459Z,4.50
2018-12-17T19:59:08.960Z,4.30
2018-12-17T20:01:36.420Z,4.10
2018-12-17T20:04:03.951Z,4.00
2018-12-17T20:06:31.423Z,4.00
2018-12-17T20:08:58.881Z,4.00
2018-12-17T20:11:26.481Z,4.10
2018-12-17T20:13:53.935Z,4.20
2018-12-17T20:16:21.445Z,4.10
2018-12-17T20:18:48.907Z,3.90
2018-12-17T20:21:16.372Z,4.00
2018-12-17T20:23:43.837Z,4.20
2018-12-17T20:26:11.308Z,4.20
2018-12-17T20:28:38.768Z,4.20
2018-12-17T20:31:06.290Z,4.20
2018-12-17T20:33:33.742Z,4.10
2018-12-17T20:36:01.202Z,4.20
2018-12-17T20:38:28.656Z,4.20
2018-12-17T20:40:56.168Z,4.00
2018-12-17T20:43:23.633Z,4.00
2018-12-17T20:45:51.100Z,4.00
2018-12-17T20:48:18.567Z,4.00
2018-12-17T20:50:46.054Z,3.60
2018-12-17T20:53:13.511Z,3.40
2018-12-17T20:55:40.971Z,3.60
2018-12-17T20:58:08.438Z,3.70
2018-12-17T21:00:35.918Z,3.50
2018-12-17T21:03:03.430Z,3.50
2018-12-17T21:05:30.931Z,3.50
2018-12-17T21:07:58.461Z,3.70
2018-12-17T21:10:25.920Z,3.50
2018-12-17T21:12:53.386Z,3.20
2018-12-17T21:15:20.848Z,3.00
2018-12-17T21:17:48.315Z,3.20
2018-12-17T21:20:15.786Z,3.50
2018-12-17T21:22:43.254Z,3.60
2018-12-17T21:25:10.729Z,3.70
2018-12-17T21:27:38.217Z,3.80
2018-12-17T21:30:06.867Z,3.70
2018-12-17T21:32:34.334Z,3.60
2018-12-17T21:35:01.807Z,3.50
2018-12-17T21:37:29.280Z,3.40
2018-12-17T21:39:56.747Z,3.60
2018-12-17T21:42:24.212Z,3.60
2018-12-17T21:44:51.691Z,3.50
2018-12-17T21:47:19.151Z,3.60
2018-12-17T21:49:46.610Z,3.60
2018-12-17T21:52:14.079Z,3.70
2018-12-17T21:54:41.550Z,3.70
2018-12-17T21:57:09.012Z,3.80
2018-12-17T21:59:36.474Z,3.70
2018-12-17T22:02:04.454Z,3.70
2018-12-17T22:04:31.953Z,3.70
2018-12-17T22:06:59.423Z,3.80
2018-12-17T22:09:26.903Z,3.80
2018-12-17T22:11:54.359Z,3.80
2018-12-17T22:14:21.818Z,3.90
2018-12-17T22:16:49.311Z,4.00
2018-12-17T22:19:16.775Z,3.90
2018-12-17T22:21:44.258Z,3.90
2018-12-17T22:24:11.727Z,3.80
2018-12-17T22:26:39.187Z,3.80
2018-12-17T22:29:06.663Z,3.80
2018-12-17T22:31:34.127Z,3.80
2018-12-17T22:34:01.609Z,3.70
2018-12-17T22:36:29.074Z,3.60
2018-12-17T22:38:56.630Z,3.50
2018-12-17T22:41:24.086Z,3.50
2018-12-17T22:43:51.562Z,3.40
2018-12-17T22:46:19.022Z,3.40
2018-12-17T22:48:46.495Z,3.40
2018-12-17T22:51:13.965Z,3.40
2018-12-17T22:53:41.428Z,3.30
2018-12-17T22:56:08.886Z,3.30
2018-12-17T22:58:42.138Z,3.20
2018-12-17T23:01:05.903Z,3.20
2018-12-17T23:03:33.374Z,3.20
2018-12-17T23:06:00.844Z,3.30
2018-12-17T23:08:28.359Z,3.30
2018-12-17T23:11:07.774Z,3.10
2018-12-17T23:13:47.202Z,3.00
2018-12-17T23:16:26.709Z,2.50
2018-12-17T23:18:53.775Z,1.90
2018-12-17T23:21:21.289Z,2.00
2018-12-17T23:23:48.806Z,2.00
2018-12-17T23:26:16.266Z,2.30
2018-12-17T23:28:43.770Z,2.40
2018-12-17T23:31:11.235Z,2.60
2018-12-17T23:33:38.744Z,2.20
2018-12-17T23:36:07.106Z,2.20
2018-12-17T23:38:34.610Z,2.00
2018-12-17T23:41:02.078Z,1.70
2018-12-17T23:43:29.573Z,1.50
2018-12-17T23:45:57.044Z,1.60
2018-12-17T23:48:24.565Z,1.60
2018-12-17T23:50:52.043Z,1.40
2018-12-17T23:53:19.513Z,1.40
2018-12-17T23:55:46.979Z,1.50
2018-12-17T23:58:14.460Z,1.40
